createdAt,value
2018-12-22T00:00:27.519Z,8.27
2018-12-22T00:02:55.992Z,9.50
2018-12-22T00:05:24.413Z,8.83
2018-12-22T00:07:52.874Z,9.40
2018-12-22T00:10:21.320Z,8.23
2018-12-22T00:12:49.749Z,6.90
2018-12-22T00:15:18.200Z,7.67
2018-12-22T00:17:46.601Z,7.60
2018-12-22T00:20:15.020Z,7.63
2018-12-22T00:22:43.496Z,7.70
2018-12-22T00:25:11.937Z,7.70
2018-12-22T00:27:40.360Z,9.57
2018-12-22T00:30:09.536Z,7.50
2018-12-22T00:32:38.008Z,7.60
2018-12-22T00:35:06.543Z,10.50
2018-12-22T00:37:34.967Z,9.47
2018-12-22T00:40:03.720Z,8.73
2018-12-22T00:42:32.189Z,7.93
2018-12-22T00:45:00.637Z,9.83
2018-12-22T00:47:29.063Z,7.60
2018-12-22T00:49:57.448Z,8.40
2018-12-22T00:52:32.371Z,7.17
2018-12-22T00:55:00.776Z,8.20
2018-12-22T00:57:29.202Z,7.90
2018-12-22T00:59:57.690Z,7.10
2018-12-22T01:02:26.197Z,10.70
2018-12-22T01:04:54.592Z,7.50
2018-12-22T01:07:23.079Z,8.10
2018-12-22T01:09:51.498Z,8.30
2018-12-22T01:12:20.025Z,9.60
2018-12-22T01:14:48.436Z,9.67
2018-12-22T01:17:16.836Z,8.03
2018-12-22T01:19:45.268Z,9.07
2018-12-22T01:22:13.699Z,7.90
2018-12-22T01:24:42.090Z,7.83
2018-12-22T01:27:10.491Z,6.70
2018-12-22T01:29:39.015Z,7.73
2018-12-22T01:32:07.492Z,6.73
2018-12-22T01:34:35.979Z,8.73
2018-12-22T01:37:04.529Z,8.73
2018-12-22T01:39:32.970Z,8.67
2018-12-22T01:42:01.412Z,7.53
2018-12-22T01:44:29.819Z,8.13
2018-12-22T01:46:58.238Z,8.67
2018-12-22T01:49:26.698Z,7.47
2018-12-22T01:51:55.255Z,7.37
2018-12-22T01:54:23.661Z,6.73
2018-12-22T01:56:52.081Z,7.83
2018-12-22T01:59:20.604Z,7.40
2018-12-22T02:01:49.007Z,8.80
2018-12-22T02:04:17.423Z,7.10
2018-12-22T02:06:45.813Z,7.33
2018-12-22T02:09:14.183Z,6.97
2018-12-22T02:11:42.713Z,7.33
2018-12-22T02:14:11.110Z,9.80
2018-12-22T02:16:39.508Z,9.53
2018-12-22T02:19:07.922Z,7.60
2018-12-22T02:21:36.665Z,7.33
2018-12-22T02:24:05.191Z,7.03
2018-12-22T02:26:33.597Z,7.90
2018-12-22T02:29:01.988Z,7.97
2018-12-22T02:31:30.382Z,8.60
2018-12-22T02:33:58.950Z,6.23
2018-12-22T02:36:27.343Z,6.27
2018-12-22T02:38:55.788Z,7.00
2018-12-22T02:41:24.211Z,6.40
2018-12-22T02:43:52.620Z,6.10
2018-12-22T02:46:21.008Z,6.23
2018-12-22T02:48:49.479Z,6.37
2018-12-22T02:51:17.877Z,6.07
2018-12-22T02:53:46.291Z,6.23
2018-12-22T02:56:14.679Z,6.70
2018-12-22T02:58:43.060Z,6.43
2018-12-22T03:01:11.525Z,5.20
2018-12-22T03:03:40.000Z,5.40
2018-12-22T03:06:08.368Z,5.83
2018-12-22T03:08:36.804Z,4.90
2018-12-22T03:11:05.292Z,5.70
2018-12-22T03:13:33.665Z,6.10
2018-12-22T03:16:02.073Z,6.57
2018-12-22T03:18:30.447Z,5.27
2018-12-22T03:20:58.835Z,5.30
2018-12-22T03:23:27.259Z,6.10
2018-12-22T03:25:55.671Z,7.13
2018-12-22T03:28:24.067Z,5.87
2018-12-22T03:30:52.538Z,6.50
2018-12-22T03:33:20.944Z,5.17
2018-12-22T03:35:49.333Z,4.70
2018-12-22T03:38:17.760Z,5.90
2018-12-22T03:40:46.196Z,4.93
2018-12-22T03:43:14.602Z,5.13
2018-12-22T03:45:43.012Z,5.07
2018-12-22T03:48:11.410Z,6.47
2018-12-22T03:50:39.841Z,5.50
2018-12-22T03:53:08.241Z,4.83
2018-12-22T03:55:36.629Z,4.30
2018-12-22T03:58:04.998Z,4.23
2018-12-22T04:00:33.441Z,3.00
2018-12-22T04:03:01.839Z,3.70
2018-12-22T04:05:30.219Z,4.23
2018-12-22T04:07:58.648Z,3.70
2018-12-22T04:10:27.062Z,3.57
2018-12-22T04:12:55.452Z,3.37
2018-12-22T04:15:23.872Z,4.80
2018-12-22T04:17:52.261Z,3.40
2018-12-22T04:20:20.655Z,3.33
2018-12-22T04:22:49.071Z,3.73
2018-12-22T04:25:17.479Z,3.27
2018-12-22T04:27:45.868Z,2.53
2018-12-22T04:30:14.625Z,3.00
2018-12-22T04:32:43.016Z,2.20
2018-12-22T04:35:11.450Z,1.70
2018-12-22T04:37:39.855Z,2.00
2018-12-22T04:40:08.252Z,1.80
2018-12-22T04:42:36.689Z,1.40
2018-12-22T04:45:05.512Z,0.80
2018-12-22T04:47:33.903Z,1.20
2018-12-22T04:50:02.291Z,1.97
2018-12-22T04:52:30.733Z,1.53
2018-12-22T04:54:59.147Z,2.27
2018-12-22T04:57:27.555Z,1.53
2018-12-22T04:59:55.940Z,2.73
2018-12-22T05:02:30.901Z,3.47
2018-12-22T05:04:59.287Z,2.20
2018-12-22T05:07:27.682Z,2.70
2018-12-22T05:09:56.097Z,3.50
2018-12-22T05:12:24.582Z,3.70
2018-12-22T05:14:52.998Z,3.47
2018-12-22T05:17:21.415Z,3.70
2018-12-22T05:19:49.823Z,3.80
2018-12-22T05:22:18.224Z,3.00
2018-12-22T05:24:46.640Z,2.90
2018-12-22T05:27:15.104Z,3.40
2018-12-22T05:29:51.565Z,4.03
2018-12-22T05:32:13.977Z,2.73
2018-12-22T05:34:42.475Z,4.10
2018-12-22T05:37:11.147Z,2.60
2018-12-22T05:39:39.559Z,4.20
2018-12-22T05:42:07.944Z,3.10
2018-12-22T05:44:36.356Z,3.33
2018-12-22T05:47:04.768Z,2.40
2018-12-22T05:49:33.232Z,2.60
2018-12-22T05:52:01.620Z,2.70
2018-12-22T05:54:30.034Z,3.77
2018-12-22T05:56:58.423Z,1.97
2018-12-22T05:59:26.825Z,2.67
2018-12-22T06:01:55.230Z,4.20
2018-12-22T06:04:23.606Z,2.90
2018-12-22T06:06:52.003Z,3.27
2018-12-22T06:09:20.415Z,4.50
2018-12-22T06:11:48.818Z,2.67
2018-12-22T06:14:17.235Z,3.73
2018-12-22T06:16:45.631Z,4.63
2018-12-22T06:19:14.019Z,2.80
2018-12-22T06:21:42.627Z,3.20
2018-12-22T06:24:11.011Z,4.27
2018-12-22T06:26:39.387Z,3.73
2018-12-22T06:29:07.796Z,3.13
2018-12-22T06:31:36.176Z,3.93
2018-12-22T06:34:04.755Z,3.90
2018-12-22T06:36:33.170Z,4.27
2018-12-22T06:39:01.551Z,3.30
2018-12-22T06:41:29.963Z,3.90
2018-12-22T06:43:58.396Z,3.70
2018-12-22T06:46:26.784Z,4.30
2018-12-22T06:48:55.159Z,3.90
2018-12-22T06:51:23.553Z,3.50
2018-12-22T06:53:51.966Z,4.20
2018-12-22T06:56:20.357Z,3.80
2018-12-22T06:58:48.795Z,4.30
2018-12-22T07:01:17.299Z,3.50
2018-12-22T07:03:45.898Z,2.93
2018-12-22T07:06:14.465Z,2.53
2018-12-22T07:08:42.970Z,2.77
2018-12-22T07:11:11.374Z,2.43
2018-12-22T07:13:39.896Z,2.60
2018-12-22T07:16:08.287Z,1.90
2018-12-22T07:18:36.669Z,2.33
2018-12-22T07:21:05.113Z,1.63
2018-12-22T07:23:33.521Z,1.97
2018-12-22T07:26:01.928Z,1.93
2018-12-22T07:28:30.355Z,1.90
2018-12-22T07:30:58.765Z,2.00
2018-12-22T07:33:27.158Z,2.27
2018-12-22T07:35:55.624Z,1.40
2018-12-22T07:38:24.012Z,1.73
2018-12-22T07:40:52.715Z,1.80
2018-12-22T07:43:21.132Z,1.80
2018-12-22T07:45:49.535Z,2.23
2018-12-22T07:48:17.916Z,1.60
2018-12-22T07:50:46.597Z,1.43
2018-12-22T07:53:15.038Z,1.70
2018-12-22T07:55:43.447Z,2.17
2018-12-22T07:58:11.866Z,1.87
2018-12-22T08:03:00.224Z,1.80
2018-12-22T08:05:28.648Z,2.80
2018-12-22T08:07:57.049Z,2.27
2018-12-22T08:10:25.547Z,5.50
2018-12-22T08:12:53.979Z,2.60
2018-12-22T08:15:22.418Z,2.10
2018-12-22T08:17:50.816Z,2.03
2018-12-22T08:20:19.329Z,2.70
2018-12-22T08:22:47.736Z,2.70
2018-12-22T08:25:16.204Z,2.50
2018-12-22T08:27:44.615Z,3.30
2018-12-22T08:30:13.019Z,2.90
2018-12-22T08:32:41.410Z,2.53
2018-12-22T08:35:09.825Z,3.00
2018-12-22T08:37:38.249Z,2.90
2018-12-22T08:40:08.721Z,3.03
2018-12-22T08:42:37.118Z,3.47
2018-12-22T08:45:06.578Z,2.33
2018-12-22T08:47:35.099Z,2.50
2018-12-22T08:50:09.027Z,2.57
2018-12-22T08:52:34.277Z,2.80
2018-12-22T08:55:02.682Z,3.43
2018-12-22T08:57:31.110Z,2.77
2018-12-22T08:59:59.515Z,2.90
2018-12-22T09:02:27.918Z,2.70
2018-12-22T09:04:56.298Z,2.63
2018-12-22T09:07:24.720Z,2.30
2018-12-22T09:09:53.103Z,2.50
2018-12-22T09:12:21.488Z,2.50
2018-12-22T09:14:49.904Z,2.60
2018-12-22T09:17:18.303Z,1.53
2018-12-22T09:19:46.697Z,2.77
2018-12-22T09:22:15.230Z,1.93
2018-12-22T09:24:43.641Z,3.00
2018-12-22T09:27:12.036Z,4.20
2018-12-22T09:29:40.468Z,2.57
2018-12-22T09:32:08.891Z,2.60
2018-12-22T09:34:37.347Z,2.63
2018-12-22T09:37:06.882Z,2.37
2018-12-22T09:39:35.646Z,2.67
2018-12-22T09:42:04.181Z,2.80
2018-12-22T09:44:32.636Z,2.83
2018-12-22T09:47:01.064Z,2.60
2018-12-22T09:49:29.508Z,2.20
2018-12-22T09:51:57.919Z,2.37
2018-12-22T17:11:14.031Z,5.37
2018-12-22T17:13:43.236Z,6.23
2018-12-22T17:16:11.644Z,5.17
2018-12-22T17:18:40.092Z,5.73
2018-12-22T17:21:27.230Z,5.63
2018-12-22T17:24:10.461Z,6.87
2018-12-22T17:26:41.803Z,6.73
2018-12-22T17:29:10.460Z,6.70
2018-12-22T17:31:40.488Z,7.47
2018-12-22T17:34:08.891Z,6.93
2018-12-22T17:36:37.459Z,7.27
2018-12-22T17:39:08.808Z,6.10
2018-12-22T17:41:37.245Z,7.00
2018-12-22T17:44:06.380Z,7.03
2018-12-22T17:46:34.788Z,6.70
2018-12-22T17:49:03.251Z,5.40
2018-12-22T17:51:31.714Z,7.60
2018-12-22T17:54:00.144Z,6.20
2018-12-22T17:56:28.581Z,6.87
2018-12-22T17:58:56.975Z,7.17
2018-12-22T18:01:25.399Z,8.00
2018-12-22T18:03:53.829Z,7.93
2018-12-22T18:06:22.212Z,8.23
2018-12-22T18:08:50.672Z,5.90
2018-12-22T18:11:19.096Z,8.40
2018-12-22T18:13:47.492Z,8.00
2018-12-22T18:16:15.907Z,8.00
2018-12-22T18:18:44.294Z,9.27
2018-12-22T18:21:12.817Z,7.40
2018-12-22T18:23:41.242Z,6.83
2018-12-22T18:26:09.642Z,6.23
2018-12-22T18:28:38.038Z,7.33
2018-12-22T18:31:06.448Z,6.77
2018-12-22T18:33:36.052Z,8.00
2018-12-22T18:36:04.854Z,7.00
2018-12-22T18:38:33.280Z,7.50
2018-12-22T18:41:01.704Z,8.30
2018-12-22T18:43:30.116Z,7.73
2018-12-22T18:45:58.531Z,7.13
2018-12-22T18:48:26.912Z,9.00
2018-12-22T18:50:55.403Z,8.17
2018-12-22T18:53:23.902Z,8.60
2018-12-22T18:55:52.421Z,9.60
2018-12-22T18:58:20.848Z,8.67
2018-12-22T19:00:49.260Z,6.60
2018-12-22T19:03:17.719Z,6.53
2018-12-22T19:05:46.188Z,8.70
2018-12-22T19:08:16.129Z,8.07
2018-12-22T19:10:52.947Z,8.30
2018-12-22T19:13:21.364Z,7.83
2018-12-22T19:15:49.788Z,8.13
2018-12-22T19:18:18.224Z,8.33
2018-12-22T19:20:49.782Z,6.73
2018-12-22T19:23:19.654Z,8.60
2018-12-22T19:25:48.121Z,7.60
2018-12-22T19:28:16.882Z,8.20
2018-12-22T19:30:45.424Z,7.60
2018-12-22T19:33:13.912Z,7.23
2018-12-22T19:35:42.331Z,8.80
2018-12-22T19:38:11.018Z,8.67
2018-12-22T19:40:39.421Z,7.33
2018-12-22T19:43:07.896Z,7.20
2018-12-22T19:45:36.336Z,10.63
2018-12-22T19:48:04.968Z,7.63
2018-12-22T19:50:33.467Z,7.93
2018-12-22T19:53:01.903Z,8.67
2018-12-22T19:55:30.348Z,9.43
2018-12-22T19:57:58.813Z,6.80
2018-12-22T20:00:27.253Z,8.80
2018-12-22T20:02:55.852Z,7.53
2018-12-22T20:05:24.440Z,8.37
2018-12-22T20:07:53.026Z,7.70
2018-12-22T20:10:21.437Z,7.30
2018-12-22T20:12:49.884Z,8.00
2018-12-22T20:15:18.568Z,9.17
2018-12-22T20:17:47.226Z,8.40
2018-12-22T20:20:15.744Z,7.47
2018-12-22T20:22:44.140Z,8.53
2018-12-22T20:25:12.548Z,8.40
2018-12-22T20:27:41.017Z,7.27
2018-12-22T20:30:09.477Z,9.07
2018-12-22T20:32:37.883Z,7.57
2018-12-22T20:35:06.312Z,7.80
2018-12-22T20:37:34.735Z,7.23
2018-12-22T20:40:03.296Z,7.47
2018-12-22T20:42:31.734Z,7.43
2018-12-22T20:45:00.208Z,6.93
2018-12-22T20:47:28.666Z,5.80
2018-12-22T20:49:57.109Z,5.77
2018-12-22T20:52:25.504Z,5.63
2018-12-22T20:54:53.931Z,5.83
2018-12-22T20:57:22.379Z,5.87
2018-12-22T20:59:50.802Z,5.10
2018-12-22T21:02:19.207Z,4.77
2018-12-22T21:04:47.772Z,5.93
2018-12-22T21:07:16.264Z,5.07
2018-12-22T21:09:44.740Z,5.20
2018-12-22T21:12:13.226Z,5.90
2018-12-22T21:14:41.931Z,4.50
2018-12-22T21:17:10.387Z,6.10
2018-12-22T21:19:38.812Z,6.53
2018-12-22T21:22:07.253Z,5.97
2018-12-22T21:24:35.692Z,6.37
2018-12-22T21:27:04.196Z,6.77
2018-12-22T21:29:32.721Z,8.30
2018-12-22T21:32:01.216Z,6.70
2018-12-22T21:34:29.629Z,7.77
2018-12-22T21:36:58.039Z,6.00
2018-12-22T21:39:26.470Z,7.40
2018-12-22T21:41:54.894Z,7.77
2018-12-22T21:44:23.425Z,8.10
2018-12-22T21:46:51.839Z,6.70
2018-12-22T21:49:20.291Z,7.90
2018-12-22T21:51:48.835Z,6.40
2018-12-22T21:54:17.877Z,7.33
2018-12-22T21:56:46.289Z,5.70
2018-12-22T21:59:14.768Z,6.30
2018-12-22T22:01:43.164Z,6.07
2018-12-22T22:04:11.624Z,5.10
2018-12-22T22:06:40.073Z,6.40
2018-12-22T22:09:08.493Z,5.67
2018-12-22T22:11:36.940Z,6.37
2018-12-22T22:14:05.393Z,6.53
2018-12-22T22:16:33.925Z,5.70
2018-12-22T22:19:02.421Z,5.40
2018-12-22T22:21:30.864Z,6.67
2018-12-22T22:23:59.333Z,5.50
2018-12-22T22:26:27.870Z,4.70
2018-12-22T22:28:56.292Z,5.80
2018-12-22T22:31:24.779Z,4.20
2018-12-22T22:33:53.267Z,5.00
2018-12-22T22:36:21.707Z,4.97
2018-12-22T22:38:50.114Z,5.30
2018-12-22T22:41:18.508Z,5.00
2018-12-22T22:43:46.968Z,5.43
2018-12-22T22:46:15.420Z,6.33
2018-12-22T22:48:43.839Z,7.00
2018-12-22T22:51:12.293Z,6.77
2018-12-22T22:53:40.715Z,7.33
2018-12-22T22:56:09.158Z,7.10
2018-12-22T22:58:37.623Z,6.13
2018-12-22T23:01:06.177Z,5.93
2018-12-22T23:03:34.812Z,7.37
2018-12-22T23:06:03.240Z,5.00
2018-12-22T23:08:31.653Z,6.07
2018-12-22T23:11:00.102Z,5.90
2018-12-22T23:13:28.508Z,7.10
2018-12-22T23:15:56.939Z,5.50
2018-12-22T23:18:25.337Z,6.00
2018-12-22T23:20:53.785Z,6.00
2018-12-22T23:23:22.188Z,7.33
2018-12-22T23:25:50.647Z,5.80
2018-12-22T23:28:19.183Z,6.57
2018-12-22T23:30:47.632Z,6.37
2018-12-22T23:33:16.072Z,5.60
2018-12-22T23:35:44.569Z,5.90
2018-12-22T23:38:13.010Z,6.07
2018-12-22T23:40:41.460Z,5.73
2018-12-22T23:43:09.982Z,7.60
2018-12-22T23:45:38.421Z,6.87
2018-12-22T23:48:06.833Z,6.20
2018-12-22T23:50:35.240Z,5.07
2018-12-22T23:53:03.792Z,6.80
2018-12-22T23:55:32.216Z,6.00
2018-12-22T23:58:00.649Z,7.57
